createdAt,value
2018-10-17T11:05:43.040Z,37.83
2018-10-17T11:08:37.043Z,40.45
2018-10-17T11:11:30.553Z,31.48
2018-10-17T11:14:21.888Z,34.85
2018-10-17T11:17:14.927Z,37.05
2018-10-17T11:21:29.691Z,35.35
2018-10-17T11:24:19.691Z,38.58
2018-10-17T11:27:11.232Z,37.45
2018-10-17T11:30:04.306Z,35.58
2018-10-17T11:33:02.611Z,41.13
2018-10-17T11:39:23.092Z,33.10
2018-10-17T11:42:18.393Z,40.43
2018-10-17T11:48:29.016Z,35.45
2018-10-17T11:51:19.971Z,38.23
2018-10-17T11:54:39.247Z,40.33
2018-10-17T12:11:45.992Z,43.65
2018-10-17T12:14:42.000Z,40.30
2018-10-17T12:17:44.843Z,33.42
2018-10-17T12:24:00.704Z,41.58
2018-10-17T12:26:54.949Z,35.78
2018-10-17T12:29:52.537Z,44.30
2018-10-17T12:33:06.598Z,40.63
2018-10-17T12:36:00.749Z,43.58
2018-10-17T12:38:50.660Z,50.35
2018-10-17T12:41:40.404Z,43.95
2018-10-17T12:44:32.461Z,42.45
2018-10-17T12:47:22.341Z,45.63
2018-10-17T12:50:24.575Z,45.33
2018-10-17T12:53:14.268Z,46.18
2018-10-17T12:56:05.419Z,49.25
2018-10-17T12:59:07.165Z,50.48
2018-10-17T13:01:57.298Z,47.73
2018-10-17T13:04:47.265Z,49.35
2018-10-17T13:07:38.085Z,48.38
2018-10-17T13:10:25.690Z,44.65
2018-10-17T13:13:14.859Z,49.05
2018-10-17T13:16:03.663Z,49.80
2018-10-17T13:18:53.326Z,42.78
2018-10-17T13:21:42.777Z,49.93
2018-10-17T13:24:37.164Z,50.25
2018-10-17T13:27:27.184Z,52.93
2018-10-17T13:30:16.532Z,55.12
2018-10-17T13:33:05.675Z,56.00
2018-10-17T13:35:55.549Z,51.50
2018-10-17T13:38:47.524Z,55.00
2018-10-17T13:41:35.998Z,59.20
2018-10-17T13:44:24.594Z,55.03
2018-10-17T13:47:12.991Z,52.60
2018-10-17T13:50:01.449Z,54.10
2018-10-17T13:52:51.197Z,53.20
2018-10-17T13:59:02.401Z,50.17
2018-10-17T14:01:50.053Z,51.60
2018-10-17T14:04:38.179Z,53.42
2018-10-17T14:07:25.988Z,50.75
2018-10-17T14:10:14.183Z,52.73
2018-10-17T14:13:01.328Z,55.67
2018-10-17T14:15:50.115Z,54.15
2018-10-17T14:18:38.531Z,51.77
2018-10-17T14:21:27.336Z,51.23
2018-10-17T14:24:15.279Z,48.78
2018-10-17T14:27:05.073Z,43.87
2018-10-17T14:29:53.403Z,53.28
2018-10-17T14:32:42.727Z,48.58
2018-10-17T14:35:31.289Z,55.17
2018-10-17T14:38:21.171Z,47.93
2018-10-17T14:41:10.144Z,47.40
2018-10-17T14:43:57.068Z,53.13
2018-10-17T14:46:48.114Z,46.40
2018-10-17T14:49:39.092Z,48.42
2018-10-17T14:52:29.912Z,45.17
2018-10-17T14:55:20.959Z,46.90
2018-10-17T14:58:18.514Z,45.38
2018-10-17T15:01:10.753Z,50.60
2018-10-17T15:04:02.708Z,51.53
2018-10-17T15:06:54.704Z,47.75
2018-10-17T15:09:43.807Z,47.55
2018-10-17T15:12:31.454Z,51.33
2018-10-17T15:15:20.560Z,49.93
2018-10-17T15:18:11.759Z,47.43
2018-10-17T15:21:02.057Z,45.43
2018-10-17T15:23:52.126Z,47.45
2018-10-17T15:26:41.514Z,43.33
2018-10-17T15:29:34.255Z,48.28
2018-10-17T15:32:24.104Z,43.15
2018-10-17T15:35:14.538Z,48.90
2018-10-17T15:38:08.469Z,42.17
2018-10-17T15:40:59.551Z,45.85
2018-10-17T15:43:46.947Z,47.83
2018-10-17T15:46:37.579Z,45.03
2018-10-17T15:49:25.838Z,43.95
2018-10-17T15:52:21.923Z,45.48
2018-10-17T15:55:14.887Z,47.20
2018-10-17T15:58:05.863Z,43.45
2018-10-17T16:00:56.801Z,46.13
2018-10-17T16:03:48.987Z,43.25
2018-10-17T16:06:41.889Z,47.75
2018-10-17T16:09:34.125Z,44.77
2018-10-17T16:12:24.868Z,46.55
2018-10-17T16:15:13.756Z,44.77
2018-10-17T16:18:03.244Z,44.98
2018-10-17T16:20:54.380Z,44.98
2018-10-17T16:23:46.790Z,42.33
2018-10-17T16:26:38.509Z,47.50
2018-10-17T16:29:29.933Z,44.95
2018-10-17T16:32:20.087Z,42.67
2018-10-17T16:35:11.553Z,42.15
2018-10-17T16:38:02.370Z,41.98
2018-10-17T16:40:55.059Z,43.28
2018-10-17T16:43:47.211Z,51.60
2018-10-17T16:46:37.148Z,49.60
2018-10-17T16:49:28.886Z,43.13
2018-10-17T16:52:20.345Z,41.10
2018-10-17T16:55:10.657Z,48.55
2018-10-17T16:58:03.357Z,44.08
2018-10-17T17:00:54.473Z,42.38
2018-10-17T17:03:44.788Z,47.30
2018-10-17T17:06:36.376Z,43.35
2018-10-17T17:09:26.203Z,39.65
2018-10-17T17:12:16.202Z,44.25
2018-10-17T17:15:05.700Z,44.48
2018-10-17T17:18:01.490Z,46.35
2018-10-17T17:20:51.369Z,45.80
2018-10-17T17:23:41.498Z,48.40
2018-10-17T17:26:32.740Z,52.83
2018-10-17T17:29:23.669Z,50.65
2018-10-17T17:32:14.044Z,51.13
2018-10-17T17:35:04.634Z,50.28
2018-10-17T17:37:55.044Z,47.78
2018-10-17T17:40:45.008Z,48.30
2018-10-17T17:43:31.937Z,39.98
2018-10-17T17:46:23.198Z,45.15
2018-10-17T17:49:10.073Z,43.60
2018-10-17T17:51:59.747Z,45.58
2018-10-17T17:54:50.881Z,47.33
2018-10-17T17:57:42.416Z,40.98
2018-10-17T18:00:32.789Z,40.90
2018-10-17T18:03:20.271Z,42.75
2018-10-17T18:06:09.730Z,43.05
2018-10-17T18:08:58.771Z,42.25
2018-10-17T18:11:47.741Z,44.27
2018-10-17T18:14:37.127Z,39.63
2018-10-17T18:17:28.227Z,43.23
2018-10-17T18:20:18.085Z,39.98
2018-10-17T18:23:07.387Z,44.48
2018-10-17T18:25:56.420Z,39.98
2018-10-17T18:28:46.380Z,40.65
2018-10-17T18:31:33.855Z,41.20
2018-10-17T18:34:21.192Z,40.43
2018-10-17T18:37:07.645Z,41.25
2018-10-17T18:39:54.119Z,37.90
2018-10-17T18:42:40.283Z,38.02
2018-10-17T18:45:26.672Z,40.15
2018-10-17T18:48:14.096Z,37.03
2018-10-17T18:51:01.059Z,40.08
2018-10-17T18:53:47.987Z,43.17
2018-10-17T18:56:34.702Z,40.60
2018-10-17T18:59:22.236Z,40.65
2018-10-17T19:02:09.035Z,37.20
2018-10-17T19:04:56.873Z,39.60
2018-10-17T19:07:43.695Z,38.15
2018-10-17T19:10:32.447Z,36.03
2018-10-17T19:13:22.084Z,38.35
2018-10-17T19:16:11.862Z,36.63
2018-10-17T19:19:01.095Z,39.50
2018-10-17T19:21:49.379Z,37.65
2018-10-17T19:24:38.511Z,36.40
2018-10-17T19:27:27.651Z,42.33
2018-10-17T19:30:19.168Z,35.30
2018-10-17T19:33:08.210Z,37.78
2018-10-17T19:35:57.873Z,39.83
2018-10-17T19:38:46.473Z,36.77
2018-10-17T19:41:35.272Z,35.58
2018-10-17T19:44:25.574Z,36.83
2018-10-17T19:47:12.494Z,36.10
2018-10-17T19:49:58.852Z,38.23
2018-10-17T19:52:45.679Z,37.85
2018-10-17T19:55:32.511Z,37.05
2018-10-17T19:58:19.166Z,35.43
2018-10-17T20:01:06.195Z,36.40
2018-10-17T20:03:52.346Z,33.83
2018-10-17T20:06:39.137Z,36.23
2018-10-17T20:09:25.977Z,34.33
2018-10-17T20:12:15.418Z,36.83
2018-10-17T20:15:03.343Z,37.55
2018-10-17T20:17:52.280Z,35.92
2018-10-17T20:20:41.043Z,36.75
2018-10-17T20:23:29.703Z,37.45
2018-10-17T20:26:18.697Z,42.05
2018-10-17T20:29:07.947Z,38.95
2018-10-17T20:31:57.053Z,34.53
2018-10-17T20:34:46.629Z,33.20
2018-10-17T20:37:35.323Z,36.85
2018-10-17T20:40:24.807Z,36.50
2018-10-17T20:43:13.609Z,35.43
2018-10-17T20:46:02.029Z,33.70
2018-10-17T20:48:50.257Z,36.80
2018-10-17T20:51:39.499Z,34.45
2018-10-17T20:54:28.717Z,34.70
2018-10-17T20:57:17.202Z,33.48
2018-10-17T21:00:06.836Z,34.90
2018-10-17T21:02:54.781Z,36.45
2018-10-17T21:05:43.635Z,31.97
2018-10-17T21:08:31.895Z,37.20
2018-10-17T21:11:19.936Z,33.00
2018-10-17T21:14:07.468Z,34.05
2018-10-17T21:16:55.438Z,34.00
2018-10-17T21:19:43.777Z,34.27
2018-10-17T21:22:31.669Z,35.40
2018-10-17T21:25:20.109Z,31.90
2018-10-17T21:28:10.624Z,32.80
2018-10-17T21:30:57.475Z,38.58
2018-10-17T21:33:45.966Z,32.67
2018-10-17T21:36:34.320Z,33.42
2018-10-17T21:39:23.390Z,32.25
2018-10-17T21:42:12.737Z,32.45
2018-10-17T21:45:00.752Z,33.48
2018-10-17T21:47:48.759Z,33.80
2018-10-17T21:50:37.641Z,32.98
2018-10-17T21:53:26.363Z,32.23
2018-10-17T21:56:13.870Z,32.42
2018-10-17T21:59:02.286Z,33.02
2018-10-17T22:01:50.525Z,33.58
2018-10-17T22:04:38.931Z,32.88
2018-10-17T22:07:28.021Z,34.95
2018-10-17T22:10:14.982Z,31.93
2018-10-17T22:13:03.474Z,33.83
2018-10-17T22:15:53.192Z,32.17
2018-10-17T22:18:41.874Z,33.98
2018-10-17T22:21:31.038Z,31.40
2018-10-17T22:24:19.341Z,30.90
2018-10-17T22:27:07.147Z,30.95
2018-10-17T22:29:54.603Z,33.35
2018-10-17T22:32:42.523Z,30.65
2018-10-17T22:35:31.573Z,35.28
2018-10-17T22:38:20.333Z,30.95
2018-10-17T22:41:08.415Z,30.45
2018-10-17T22:43:56.659Z,30.25
2018-10-17T22:46:44.734Z,32.75
2018-10-17T22:49:32.349Z,31.33
2018-10-17T22:52:18.587Z,32.40
2018-10-17T22:55:08.267Z,32.60
2018-10-17T22:57:57.044Z,30.57
2018-10-17T23:00:45.032Z,29.80
2018-10-17T23:03:33.627Z,32.73
2018-10-17T23:06:20.292Z,29.80
2018-10-17T23:09:07.870Z,28.75
2018-10-17T23:11:55.450Z,30.70
2018-10-17T23:14:44.611Z,30.00
2018-10-17T23:17:32.074Z,31.17
2018-10-17T23:20:18.683Z,30.05
2018-10-17T23:23:06.726Z,30.30
2018-10-17T23:25:53.065Z,29.50
2018-10-17T23:28:40.301Z,31.97
2018-10-17T23:31:28.074Z,28.85
2018-10-17T23:34:14.860Z,30.25
2018-10-17T23:37:02.321Z,38.25
2018-10-17T23:39:50.716Z,29.27
2018-10-17T23:42:39.322Z,29.55
2018-10-17T23:45:29.728Z,27.95
2018-10-17T23:48:17.831Z,32.20
2018-10-17T23:51:04.855Z,36.30
2018-10-17T23:53:50.821Z,34.00
2018-10-17T23:56:37.334Z,31.70
2018-10-17T23:59:25.193Z,31.57
